CheckWX is a tool to help pilots better visualize weather data.  It is not intended as a substitute for an official pre-flight weather briefing.

05:58:46 UTC

KORD METAR
Chicago O'hare International Airport
Chicago, Illinois, USA
Current

1 hour ago

KORD 020451Z 22014KT 10SM FEW150 22/11 A2998 RMK AO2 SLP149 T02170111 $
Observed
Jun-2 @ 04:51 UTC
Wind
  • 220° at 14 KTS
Visibility
Flight Rules
VFR
Cloud Levels
  • Few at 15,000' AGL
Temperature
22°C / 72°F
Dewpoint
11°C / 52°F
Humidity
50%
Altimeter
29.98" Hg
Pressure
1015.22 hPa
Previous

2 hours ago

KORD 020351Z 22012KT 10SM FEW150 22/11 A2999 RMK AO2 SLP151 T02170106 $
Observed
Jun-2 @ 03:51 UTC
Wind
  • 220° at 12 KTS
Visibility
Flight Rules
VFR
Cloud Levels
  • Few at 15,000' AGL
Temperature
22°C / 72°F
Dewpoint
11°C / 52°F
Humidity
50%
Altimeter
29.99" Hg
Pressure
1015.62 hPa
Previous

3 hours ago

KORD 020251Z 21010KT 10SM FEW150 22/09 A2999 RMK AO2 SLP154 T02170094 53004 $
Observed
Jun-2 @ 02:51 UTC
Wind
  • 210° at 10 KTS
Visibility
Flight Rules
VFR
Cloud Levels
  • Few at 15,000' AGL
Temperature
22°C / 72°F
Dewpoint
C / 48°F
Humidity
44%
Altimeter
29.99" Hg
Pressure
1015.62 hPa